Airfield :
LOGIN :

Register | Disclaimer

   EN    FR    IT 

 










Legend :    VFR   Marginal VFR   IFR   Intensive IFR   Very Intensive IFR
Visi :
Ceiling :
>= 8 km
>= 3000ft
5 to 8 km
1000 to 3000 ft
1500m to 5 km
500 to 1000 ft
800 to 1500m
200 to 500 ft
< 800m
< 200 ft
Symbols :   Thunderstorms  Fog  Heavy snow  Heavy precipitations  Wind > 20 kt
SIGMETs :     Misc.  Thunderstorms  Icing  Turbulence  Mountain Waves  Volcanic Ashes







- Airport Elevation : 1906 ft
- IATA code : INN


LOWI - Innsbruck

CURRENT METAR :
  • 220850Z VRB01KT 0300 R08/0400N R26/0400N FG VV002 01/01 Q1018 TEMPO FM1000 0800 BCFG SCT003

EXPIRED METARs :
  • 220820Z 26003KT 200V300 0300 R08/0400N R26/0400N FG VV002 01/01 Q1018 TEMPO FM0930 0800 BCFG
  • 220750Z VRB01KT 0300 R08/0400N R26/0400N FG VV002 00/00 Q1018 TEMPO FM0930 0800 BCFG
  • 220720Z 26003KT 0250 R08/0375N R26/0450N FG VV002 00/00 Q1018 TEMPO 0500
  • 220650Z VRB02KT 0300 R08/0450N R26/0450N FG VV002 00/00 Q1018 TEMPO 0500
  • 220620Z VRB02KT 0400 R08/0650N R26/0650N FG VV002 00/00 Q1018 TEMPO FM0800 0800

TAF AMD TAF LOWI
Valid from the 22 at 08:00 until the 23 at 06:00 UTC


220802Z 2208/2306 27003KT 0300 FG VV002 TX11/2213Z TNM01/2306Z
TEMPO 2209/2211 0800 BCFG SCT003
BECMG 2210/2212 9999 NSW FEW010
BECMG 2222/2224 27007KT
No reported NOTAMs for that airfield.



MET'MAP, your aeronautical weather chart ! - Copyright ORBIFLY December 2007 - Disclaimer

ORBIFLY MET'MAP TEAM :

Programming & Development : Alexandra Zaïnal
Concept & Development : Baudouin d'Aumeries
Co-Development & Prog : Marc-Olivier Méhu
Technical & hardware support : Manuel Goepfert

Contact : metmap@orbifly.com




SOURCES & CREDITS :

   NOAA